createdAt,value
2018-10-07T00:01:11.625Z,14.93
2018-10-07T00:03:39.070Z,8.00
2018-10-07T00:06:06.547Z,11.37
2018-10-07T00:08:36.238Z,7.63
2018-10-07T00:11:03.792Z,11.97
2018-10-07T00:13:31.278Z,8.80
2018-10-07T00:15:58.739Z,7.23
2018-10-07T00:18:26.233Z,12.60
2018-10-07T00:20:53.651Z,10.10
2018-10-07T00:23:21.377Z,7.97
2018-10-07T00:25:48.809Z,14.13
2018-10-07T00:28:16.159Z,11.53
2018-10-07T00:30:43.643Z,6.93
2018-10-07T00:33:11.259Z,5.87
2018-10-07T00:38:31.503Z,6.00
2018-10-07T00:40:58.862Z,8.70
2018-10-07T00:43:26.184Z,9.37
2018-10-07T00:45:53.571Z,8.60
2018-10-07T00:48:20.897Z,7.57
2018-10-07T00:50:48.199Z,13.73
2018-10-07T00:53:15.602Z,8.63
2018-10-07T00:55:42.902Z,7.60
2018-10-07T00:58:10.441Z,10.23
2018-10-07T01:00:37.847Z,7.73
2018-10-07T01:03:05.328Z,9.03
2018-10-07T01:05:32.870Z,12.50
2018-10-07T01:08:00.228Z,8.77
2018-10-07T01:10:27.563Z,9.03
2018-10-07T01:12:54.992Z,6.53
2018-10-07T01:15:22.492Z,9.23
2018-10-07T01:17:49.836Z,7.80
2018-10-07T01:20:17.199Z,10.10
2018-10-07T01:22:44.491Z,9.67
2018-10-07T01:25:11.859Z,8.80
2018-10-07T01:27:39.167Z,14.70
2018-10-07T01:30:07.402Z,18.17
2018-10-07T01:32:34.691Z,6.77
2018-10-07T01:35:01.915Z,10.90
2018-10-07T01:37:29.162Z,15.47
2018-10-07T01:39:56.464Z,9.20
2018-10-07T01:42:23.733Z,8.87
2018-10-07T01:44:51.003Z,8.87
2018-10-07T01:47:18.242Z,9.70
2018-10-07T01:49:45.547Z,8.57
2018-10-07T01:52:12.828Z,12.93
2018-10-07T01:54:40.154Z,8.90
2018-10-07T01:57:07.493Z,8.00
2018-10-07T01:59:34.827Z,10.57
2018-10-07T02:02:02.891Z,8.20
2018-10-07T02:04:30.181Z,8.20
2018-10-07T02:06:57.517Z,13.53
2018-10-07T02:09:24.894Z,16.77
2018-10-07T02:11:52.164Z,11.33
2018-10-07T02:14:19.473Z,9.50
2018-10-07T02:16:46.827Z,7.07
2018-10-07T02:19:14.128Z,6.97
2018-10-07T02:21:41.556Z,8.53
2018-10-07T02:24:09.033Z,12.07
2018-10-07T02:26:36.474Z,8.63
2018-10-07T02:29:03.742Z,12.10
2018-10-07T02:31:31.034Z,14.97
2018-10-07T02:33:59.101Z,7.13
2018-10-07T02:36:26.448Z,8.50
2018-10-07T02:38:53.857Z,11.87
2018-10-07T02:41:21.197Z,11.30
2018-10-07T02:43:48.502Z,8.37
2018-10-07T02:46:15.699Z,7.23
2018-10-07T02:48:42.978Z,11.13
2018-10-07T02:51:10.795Z,12.80
2018-10-07T02:53:38.073Z,13.47
2018-10-07T02:56:05.702Z,11.47
2018-10-07T02:58:33.145Z,9.97
2018-10-07T03:01:00.432Z,14.10
2018-10-07T03:03:27.760Z,9.40
2018-10-07T03:05:55.076Z,9.90
2018-10-07T03:08:22.377Z,13.90
2018-10-07T03:10:49.665Z,8.60
2018-10-07T03:13:17.292Z,9.33
2018-10-07T03:15:44.568Z,13.80
2018-10-07T03:18:11.866Z,9.70
2018-10-07T03:20:39.139Z,8.17
2018-10-07T03:23:06.629Z,11.77
2018-10-07T03:25:33.957Z,8.30
2018-10-07T03:28:01.305Z,8.50
2018-10-07T03:30:28.624Z,8.70
2018-10-07T03:32:55.876Z,8.40
2018-10-07T03:35:23.122Z,9.83
2018-10-07T03:37:51.164Z,7.97
2018-10-07T03:40:18.420Z,8.00
2018-10-07T03:42:45.752Z,9.40
2018-10-07T03:45:13.095Z,7.97
2018-10-07T03:47:40.418Z,9.73
2018-10-07T03:50:07.696Z,12.10
2018-10-07T03:52:35.600Z,14.17
2018-10-07T03:55:02.852Z,10.30
2018-10-07T03:57:30.166Z,9.50
2018-10-07T03:59:57.569Z,8.97
2018-10-07T04:02:24.832Z,12.53
2018-10-07T04:04:52.319Z,8.43
2018-10-07T04:07:19.587Z,8.00
2018-10-07T04:09:46.891Z,7.60
2018-10-07T04:12:14.192Z,7.70
2018-10-07T04:14:41.532Z,9.90
2018-10-07T04:17:08.797Z,11.60
2018-10-07T04:19:36.139Z,6.80
2018-10-07T04:22:03.452Z,9.93
2018-10-07T04:24:32.157Z,9.30
2018-10-07T04:26:59.483Z,7.40
2018-10-07T04:29:27.122Z,9.17
2018-10-07T04:31:54.527Z,9.40
2018-10-07T04:34:21.903Z,10.00
2018-10-07T04:36:49.193Z,12.93
2018-10-07T04:39:16.602Z,6.93
2018-10-07T04:41:44.383Z,9.93
2018-10-07T04:44:11.692Z,9.10
2018-10-07T04:46:39.260Z,11.00
2018-10-07T04:49:07.476Z,7.10
2018-10-07T04:51:34.750Z,12.50
2018-10-07T04:54:02.508Z,9.10
2018-10-07T04:56:29.781Z,10.30
2018-10-07T04:58:57.091Z,11.70
2018-10-07T05:01:24.355Z,11.12
2018-10-07T05:03:51.742Z,15.20
2018-10-07T05:06:20.308Z,9.08
2018-10-07T05:08:47.850Z,10.27
2018-10-07T05:11:15.248Z,8.68
2018-10-07T05:13:47.490Z,11.60
2018-10-07T05:16:32.374Z,8.43
2018-10-07T05:19:00.211Z,7.47
2018-10-07T05:21:27.631Z,8.80
2018-10-07T05:23:55.393Z,7.20
2018-10-07T05:26:22.776Z,8.38
2018-10-07T05:28:50.080Z,11.35
2018-10-07T05:31:17.378Z,10.70
2018-10-07T05:33:44.819Z,10.38
2018-10-07T05:36:12.672Z,10.03
2018-10-07T05:38:40.027Z,14.13
2018-10-07T05:41:07.583Z,14.03
2018-10-07T05:43:34.892Z,10.85
2018-10-07T05:46:02.229Z,13.70
2018-10-07T05:48:29.527Z,8.80
2018-10-07T05:50:56.904Z,13.43
2018-10-07T05:53:24.238Z,21.80
2018-10-07T05:55:51.533Z,22.60
2018-10-07T05:58:18.929Z,32.93
2018-10-07T06:00:46.310Z,39.73
2018-10-07T06:03:18.469Z,33.80
2018-10-07T06:05:46.410Z,23.12
2018-10-07T06:08:15.338Z,18.05
2018-10-07T06:10:42.698Z,17.77
2018-10-07T06:13:10.054Z,19.77
2018-10-07T06:15:38.508Z,21.62
2018-10-07T06:18:06.082Z,10.68
2018-10-07T06:20:33.411Z,16.17
2018-10-07T06:23:00.839Z,11.03
2018-10-07T06:25:28.174Z,8.70
2018-10-07T06:27:55.927Z,12.15
2018-10-07T06:30:23.237Z,13.03
2018-10-07T06:32:50.834Z,10.90
2018-10-07T06:35:18.176Z,12.57
2018-10-07T06:37:45.521Z,11.35
2018-10-07T06:40:12.913Z,12.37
2018-10-07T06:42:40.258Z,11.43
2018-10-07T06:45:07.656Z,12.00
2018-10-07T06:47:34.968Z,14.20
2018-10-07T06:50:02.273Z,13.23
2018-10-07T06:52:29.634Z,9.10
2018-10-07T06:54:56.947Z,12.40
2018-10-07T06:57:24.224Z,10.10
2018-10-07T06:59:51.509Z,14.77
2018-10-07T07:02:18.890Z,16.13
2018-10-07T07:04:46.172Z,11.90
2018-10-07T07:07:13.473Z,9.23
2018-10-07T07:09:40.764Z,8.90
2018-10-07T07:12:08.065Z,16.83
2018-10-07T07:14:35.391Z,17.17
2018-10-07T07:17:02.701Z,10.53
2018-10-07T07:19:30.048Z,12.47
2018-10-07T07:21:57.303Z,9.20
2018-10-07T07:24:24.633Z,8.67
2018-10-07T07:26:53.396Z,8.30
2018-10-07T07:29:20.828Z,7.00
2018-10-07T07:31:48.200Z,6.40
2018-10-07T07:34:15.580Z,7.73
2018-10-07T07:36:42.892Z,9.00
2018-10-07T07:39:10.137Z,11.17
2018-10-07T07:41:37.523Z,8.93
2018-10-07T07:44:04.864Z,8.33
2018-10-07T07:46:32.136Z,8.60
2018-10-07T07:49:08.712Z,6.60
2018-10-07T07:51:36.455Z,8.80
2018-10-07T07:54:03.785Z,5.57
2018-10-07T07:56:31.113Z,7.03
2018-10-07T07:58:58.422Z,7.90
2018-10-07T08:01:25.889Z,11.60
2018-10-07T08:03:53.164Z,7.97
2018-10-07T08:06:20.486Z,6.33
2018-10-07T08:08:47.746Z,7.13
2018-10-07T08:11:15.021Z,3.57
2018-10-07T08:13:42.310Z,6.97
2018-10-07T08:16:09.605Z,4.10
2018-10-07T08:18:36.870Z,7.43
2018-10-07T08:21:04.162Z,5.07
2018-10-07T08:23:31.518Z,7.27
2018-10-07T08:25:58.767Z,4.60
2018-10-07T08:28:26.071Z,7.50
2018-10-07T08:30:53.362Z,5.93
2018-10-07T08:33:20.696Z,5.93
2018-10-07T08:35:48.045Z,4.13
2018-10-07T08:38:15.377Z,9.37
2018-10-07T08:40:42.652Z,6.20
2018-10-07T08:43:09.974Z,5.87
2018-10-07T08:45:37.298Z,4.67
2018-10-07T08:48:04.646Z,11.17
2018-10-07T08:50:31.914Z,5.37
2018-10-07T08:52:59.195Z,9.03
2018-10-07T08:55:26.576Z,8.20
2018-10-07T08:57:53.828Z,8.63
2018-10-07T09:00:21.117Z,3.83
2018-10-07T09:02:48.387Z,4.07
2018-10-07T09:05:15.650Z,4.93
2018-10-07T09:07:43.005Z,4.03
2018-10-07T09:10:10.288Z,11.23
2018-10-07T09:12:37.597Z,9.60
2018-10-07T09:15:04.997Z,5.20
2018-10-07T09:17:32.305Z,3.20
2018-10-07T09:19:59.539Z,4.10
2018-10-07T09:22:26.818Z,3.83
2018-10-07T09:24:54.370Z,12.80
2018-10-07T09:27:21.800Z,10.40
2018-10-07T09:29:49.138Z,5.77
2018-10-07T09:32:16.547Z,6.50
2018-10-07T09:34:43.852Z,4.10
2018-10-07T09:37:11.107Z,11.33
2018-10-07T09:39:38.424Z,7.27
2018-10-07T09:42:05.812Z,4.93
2018-10-07T09:44:33.134Z,7.10
2018-10-07T09:47:00.485Z,7.10
2018-10-07T09:49:27.786Z,7.03
2018-10-07T09:51:55.093Z,4.73
2018-10-07T09:54:22.372Z,7.17
2018-10-07T09:56:49.606Z,11.00
2018-10-07T09:59:16.889Z,5.57
2018-10-07T10:01:44.130Z,4.97
2018-10-07T10:04:11.559Z,7.40
2018-10-07T10:06:38.733Z,7.80
2018-10-07T10:09:07.160Z,10.30
2018-10-07T10:11:34.478Z,7.77
2018-10-07T10:14:01.786Z,5.10
2018-10-07T10:16:36.872Z,5.27
2018-10-07T10:19:05.283Z,8.90
2018-10-07T10:21:36.003Z,5.03
2018-10-07T10:24:40.928Z,5.00
2018-10-07T10:27:14.872Z,5.70
2018-10-07T10:29:47.867Z,5.47
2018-10-07T10:32:24.688Z,4.60
2018-10-07T10:35:03.900Z,6.97
2018-10-07T10:37:44.250Z,5.03
2018-10-07T10:40:25.423Z,5.13
2018-10-07T10:42:59.225Z,5.90
2018-10-07T10:45:37.951Z,4.83
2018-10-07T10:48:18.016Z,4.87
2018-10-07T10:50:50.327Z,6.03
2018-10-07T10:53:25.143Z,5.73
2018-10-07T10:55:58.918Z,18.90
2018-10-07T10:58:49.490Z,7.60
2018-10-07T11:01:56.259Z,5.17
2018-10-07T11:04:26.767Z,8.40
2018-10-07T11:07:03.646Z,8.73
2018-10-07T11:10:51.307Z,7.23
2018-10-07T11:13:26.746Z,5.50
2018-10-07T11:17:13.301Z,5.07
2018-10-07T11:19:48.131Z,6.23
2018-10-07T11:22:25.136Z,7.00
2018-10-07T11:27:06.544Z,5.60
2018-10-07T11:29:41.678Z,7.53
2018-10-07T11:32:52.408Z,11.20
2018-10-07T11:35:34.898Z,5.33
2018-10-07T11:38:14.394Z,12.97
2018-10-07T11:43:02.792Z,9.17
2018-10-07T11:45:35.850Z,6.07
2018-10-07T11:48:14.839Z,3.77
2018-10-07T11:50:58.640Z,4.93
2018-10-07T11:53:34.873Z,7.00
2018-10-07T11:56:02.166Z,8.10
2018-10-07T11:58:29.502Z,8.70
2018-10-07T12:07:58.571Z,5.00
2018-10-07T12:10:25.946Z,6.67
2018-10-07T12:12:53.214Z,3.43
2018-10-07T12:15:20.452Z,5.50
2018-10-07T12:17:47.762Z,5.73
2018-10-07T12:20:15.066Z,3.83
2018-10-07T12:22:42.390Z,6.90
2018-10-07T12:25:09.727Z,3.83
2018-10-07T12:27:36.987Z,3.53
2018-10-07T12:30:04.600Z,4.47
2018-10-07T12:32:31.865Z,5.23
2018-10-07T12:34:59.171Z,6.10
2018-10-07T12:37:26.575Z,6.90
2018-10-07T12:39:53.871Z,4.23
2018-10-07T12:42:21.280Z,4.43
2018-10-07T12:44:48.644Z,5.10
2018-10-07T12:47:15.960Z,4.90
2018-10-07T12:49:43.310Z,5.07
2018-10-07T12:52:10.614Z,7.03
2018-10-07T12:54:37.970Z,5.00
2018-10-07T12:57:05.300Z,3.33
2018-10-07T12:59:32.660Z,3.10
2018-10-07T13:01:59.975Z,3.53
2018-10-07T13:04:27.247Z,3.83
2018-10-07T13:06:54.581Z,6.93
2018-10-07T13:09:21.871Z,5.47
2018-10-07T13:11:49.356Z,8.30
2018-10-07T13:14:16.643Z,5.97
2018-10-07T13:16:44.032Z,5.37
2018-10-07T13:19:11.383Z,4.37
2018-10-07T13:21:38.583Z,8.70
2018-10-07T13:24:05.870Z,6.77
2018-10-07T13:26:33.207Z,7.93
2018-10-07T13:29:00.866Z,6.60
2018-10-07T13:31:28.195Z,5.80
2018-10-07T13:33:55.445Z,4.50
2018-10-07T13:36:22.790Z,5.73
2018-10-07T13:38:50.112Z,13.50
2018-10-07T13:41:17.387Z,7.10
2018-10-07T13:43:44.658Z,8.03
2018-10-07T13:46:11.927Z,5.70
2018-10-07T13:48:39.246Z,10.03
2018-10-07T13:51:06.662Z,6.17
2018-10-07T13:53:34.212Z,7.40
2018-10-07T13:56:01.537Z,11.03
2018-10-07T13:58:28.807Z,6.27
2018-10-07T14:00:56.057Z,6.90
2018-10-07T14:03:23.342Z,9.50
2018-10-07T14:05:50.630Z,4.77
2018-10-07T14:08:17.896Z,6.77
2018-10-07T14:10:45.219Z,8.20
2018-10-07T14:13:12.513Z,4.73
2018-10-07T14:15:39.864Z,10.90
2018-10-07T14:18:07.147Z,7.70
2018-10-07T14:20:34.454Z,6.97
2018-10-07T14:23:01.777Z,15.13
2018-10-07T14:25:29.027Z,5.33
2018-10-07T14:27:56.411Z,9.03
2018-10-07T14:30:23.773Z,10.70
2018-10-07T14:32:51.090Z,11.40
2018-10-07T14:35:18.418Z,8.63
2018-10-07T14:37:45.749Z,5.50
2018-10-07T14:40:13.152Z,10.47
2018-10-07T14:42:40.511Z,11.90
2018-10-07T14:45:07.966Z,12.10
2018-10-07T14:47:35.268Z,6.20
2018-10-07T14:50:02.616Z,7.93
2018-10-07T14:52:29.896Z,8.53
2018-10-07T14:54:57.253Z,8.13
2018-10-07T14:57:24.668Z,5.77
2018-10-07T14:59:51.980Z,7.07
2018-10-07T15:02:19.359Z,7.50
2018-10-07T15:04:46.607Z,5.53
2018-10-07T15:07:13.911Z,8.73
2018-10-07T15:09:41.504Z,7.00
2018-10-07T15:12:08.843Z,11.10
2018-10-07T15:14:36.119Z,10.43
2018-10-07T15:17:03.509Z,5.77
2018-10-07T15:19:30.861Z,7.17
2018-10-07T15:21:58.179Z,4.70
2018-10-07T15:24:25.465Z,9.87
2018-10-07T15:26:52.826Z,9.63
2018-10-07T15:29:20.164Z,11.17
2018-10-07T15:31:47.471Z,6.20
2018-10-07T15:34:14.707Z,8.40
2018-10-07T15:36:41.973Z,12.07
2018-10-07T15:39:09.230Z,8.07
2018-10-07T15:41:36.497Z,10.93
2018-10-07T15:44:03.903Z,9.10
2018-10-07T15:46:31.250Z,8.80
2018-10-07T15:48:58.573Z,7.90
2018-10-07T15:51:25.900Z,12.43
2018-10-07T15:53:53.163Z,11.60
2018-10-07T15:56:20.494Z,17.20
2018-10-07T15:58:47.762Z,16.03
2018-10-07T16:01:15.094Z,13.33
2018-10-07T16:03:42.413Z,13.00
2018-10-07T16:06:09.711Z,9.83
2018-10-07T16:08:36.980Z,24.20
2018-10-07T16:11:04.644Z,14.33
2018-10-07T16:13:31.865Z,13.47
2018-10-07T16:15:59.117Z,10.70
2018-10-07T16:18:27.171Z,11.77
2018-10-07T16:20:54.504Z,9.67
2018-10-07T16:23:21.804Z,12.10
2018-10-07T16:25:49.197Z,8.37
2018-10-07T16:28:16.464Z,10.30
2018-10-07T16:30:44.072Z,11.10
2018-10-07T16:33:11.367Z,10.70
2018-10-07T16:35:38.622Z,13.70
2018-10-07T16:38:06.042Z,14.90
2018-10-07T16:40:33.330Z,9.30
2018-10-07T16:43:00.600Z,8.27
2018-10-07T16:45:27.847Z,8.97
2018-10-07T16:47:55.168Z,11.10
2018-10-07T16:50:22.480Z,9.77
2018-10-07T16:52:49.847Z,11.70
2018-10-07T16:55:17.026Z,14.33
2018-10-07T16:57:44.274Z,10.87
2018-10-07T17:00:11.590Z,16.47
2018-10-07T17:02:38.968Z,16.50
2018-10-07T17:05:11.967Z,29.23
2018-10-07T17:07:39.247Z,18.80
2018-10-07T17:10:06.766Z,16.40
2018-10-07T17:12:34.206Z,15.50
2018-10-07T17:15:01.504Z,24.90
2018-10-07T17:17:28.864Z,20.80
2018-10-07T17:19:56.120Z,17.10
2018-10-07T17:22:23.380Z,23.80
2018-10-07T17:24:50.650Z,59.27
2018-10-07T17:27:18.015Z,20.50
2018-10-07T17:29:45.336Z,16.07
2018-10-07T17:32:12.562Z,19.53
2018-10-07T17:34:39.894Z,20.27
2018-10-07T17:37:07.158Z,23.40
2018-10-07T17:39:34.672Z,21.77
2018-10-07T17:42:01.949Z,23.50
2018-10-07T17:44:29.236Z,29.37
2018-10-07T17:46:56.539Z,26.33
2018-10-07T17:49:23.794Z,27.50
2018-10-07T17:51:51.109Z,28.17
2018-10-07T17:54:18.397Z,26.63
2018-10-07T17:56:45.709Z,32.30
2018-10-07T17:59:12.979Z,27.20
2018-10-07T18:01:40.249Z,28.80
2018-10-07T18:04:07.560Z,28.73
2018-10-07T18:06:34.858Z,24.60
2018-10-07T18:09:02.249Z,29.80
2018-10-07T18:11:29.551Z,26.73
2018-10-07T18:13:56.872Z,30.13
2018-10-07T18:16:24.241Z,30.50
2018-10-07T18:18:51.536Z,26.17
2018-10-07T18:21:19.008Z,26.37
2018-10-07T18:23:46.212Z,31.50
2018-10-07T18:26:13.556Z,24.10
2018-10-07T18:28:40.800Z,24.53
2018-10-07T18:31:08.133Z,30.77
2018-10-07T18:33:35.369Z,25.50
2018-10-07T18:36:03.927Z,27.00
2018-10-07T18:38:31.236Z,22.60
2018-10-07T18:40:58.492Z,29.50
2018-10-07T18:43:57.318Z,26.40
2018-10-07T18:46:24.605Z,23.07
2018-10-07T18:48:52.062Z,22.83
2018-10-07T18:51:19.237Z,23.40
2018-10-07T18:53:46.656Z,26.87
2018-10-07T18:56:14.064Z,22.53
2018-10-07T18:58:41.366Z,27.20
2018-10-07T19:01:08.740Z,24.97
2018-10-07T19:03:36.018Z,24.00
2018-10-07T19:06:03.256Z,24.20
2018-10-07T19:08:30.598Z,22.10
2018-10-07T19:10:57.904Z,25.53
2018-10-07T19:13:25.268Z,19.73
2018-10-07T19:15:52.496Z,27.93
2018-10-07T19:18:19.801Z,23.60
2018-10-07T19:20:47.119Z,29.17
2018-10-07T19:23:14.316Z,30.00
2018-10-07T19:25:41.693Z,25.50
2018-10-07T19:28:09.015Z,22.97
2018-10-07T19:30:36.334Z,29.63
2018-10-07T19:33:03.599Z,23.10
2018-10-07T19:35:30.851Z,24.93
2018-10-07T19:37:58.108Z,20.93
2018-10-07T19:40:25.356Z,25.83
2018-10-07T19:42:52.674Z,22.87
2018-10-07T19:45:19.982Z,22.40
2018-10-07T19:47:47.229Z,27.43
2018-10-07T19:50:14.548Z,24.03
2018-10-07T19:52:41.894Z,27.97
2018-10-07T19:55:09.137Z,23.07
2018-10-07T19:57:38.001Z,22.33
2018-10-07T20:00:05.230Z,29.20
2018-10-07T20:02:32.567Z,21.50
2018-10-07T20:04:59.804Z,23.87
2018-10-07T20:07:27.157Z,22.50
2018-10-07T20:09:54.467Z,23.10
2018-10-07T20:12:21.809Z,27.30
2018-10-07T20:14:49.086Z,27.57
2018-10-07T20:17:16.299Z,31.17
2018-10-07T20:19:43.616Z,21.67
2018-10-07T20:22:13.380Z,24.73
2018-10-07T20:24:40.688Z,21.70
2018-10-07T20:27:08.041Z,23.80
2018-10-07T20:29:35.318Z,21.60
2018-10-07T20:32:02.658Z,23.50
2018-10-07T20:34:29.927Z,23.17
2018-10-07T20:36:57.245Z,23.30
2018-10-07T20:39:24.457Z,23.40
2018-10-07T20:41:51.741Z,24.77
2018-10-07T20:44:19.076Z,25.40
2018-10-07T20:46:46.430Z,32.53
2018-10-07T20:49:13.684Z,21.90
2018-10-07T20:51:40.948Z,21.07
2018-10-07T20:54:08.203Z,20.63
2018-10-07T20:56:35.479Z,32.77
2018-10-07T20:59:02.726Z,23.00
2018-10-07T21:01:30.064Z,33.87
2018-10-07T21:03:57.361Z,35.27
2018-10-07T21:06:24.590Z,35.70
2018-10-07T21:08:51.970Z,26.00
2018-10-07T21:11:19.209Z,28.90
2018-10-07T21:13:46.501Z,26.60
2018-10-07T21:16:13.809Z,34.90
2018-10-07T21:18:41.071Z,24.80
2018-10-07T21:21:08.355Z,26.70
2018-10-07T21:23:35.656Z,25.90
2018-10-07T21:26:02.944Z,33.63
2018-10-07T21:28:30.276Z,32.73
2018-10-07T21:30:57.589Z,28.63
2018-10-07T21:33:24.865Z,29.17
2018-10-07T21:35:52.169Z,29.90
2018-10-07T21:38:19.502Z,31.10
2018-10-07T21:40:46.775Z,29.00
2018-10-07T21:43:14.097Z,38.87
2018-10-07T21:45:41.343Z,31.90
2018-10-07T21:48:08.677Z,33.70
2018-10-07T21:50:35.935Z,27.63
2018-10-07T21:53:03.196Z,28.90
2018-10-07T21:55:30.538Z,25.37
2018-10-07T21:57:57.807Z,32.40
2018-10-07T22:00:25.119Z,36.60
2018-10-07T22:02:52.428Z,29.30
2018-10-07T22:05:19.688Z,27.43
2018-10-07T22:07:46.991Z,32.00
2018-10-07T22:10:14.194Z,27.73
2018-10-07T22:12:41.544Z,33.67
2018-10-07T22:15:08.849Z,29.97
2018-10-07T22:17:36.197Z,29.93
2018-10-07T22:20:03.624Z,29.90
2018-10-07T22:22:30.974Z,27.37
2018-10-07T22:24:58.272Z,25.63
2018-10-07T22:27:25.581Z,30.17
2018-10-07T22:29:52.910Z,29.23
2018-10-07T22:32:20.170Z,28.23
2018-10-07T22:34:47.527Z,30.67
2018-10-07T22:37:14.776Z,25.60
2018-10-07T22:39:42.028Z,32.40
2018-10-07T22:42:09.344Z,28.50
2018-10-07T22:44:36.623Z,23.30
2018-10-07T22:47:03.938Z,29.20
2018-10-07T22:49:31.172Z,37.00
2018-10-07T22:51:58.487Z,36.00
2018-10-07T22:54:25.721Z,27.17
2018-10-07T22:56:53.114Z,26.03
2018-10-07T22:59:20.289Z,30.90
2018-10-07T23:01:47.537Z,24.17
2018-10-07T23:05:44.256Z,22.73
2018-10-07T23:08:11.655Z,25.03
2018-10-07T23:10:38.988Z,36.67
2018-10-07T23:13:06.280Z,31.13
2018-10-07T23:15:33.525Z,33.17
2018-10-07T23:18:00.965Z,33.60
2018-10-07T23:20:28.339Z,28.20
2018-10-07T23:22:55.669Z,26.67
2018-10-07T23:25:22.922Z,30.50
2018-10-07T23:27:50.216Z,25.15
2018-10-07T23:30:17.514Z,34.07
2018-10-07T23:32:44.931Z,34.48
2018-10-07T23:35:12.152Z,27.70
2018-10-07T23:37:39.479Z,27.40
2018-10-07T23:40:07.338Z,27.47
2018-10-07T23:42:34.571Z,27.67
2018-10-07T23:45:01.925Z,25.43
2018-10-07T23:47:29.252Z,25.53
2018-10-07T23:49:56.610Z,23.33
2018-10-07T23:52:23.944Z,26.35
2018-10-07T23:54:51.200Z,28.60
2018-10-07T23:57:18.577Z,30.02
2018-10-07T23:59:45.846Z,34.23
